sensor_id;sensor_type;location;lat;lon;timestamp;P1;durP1;ratioP1;P2;durP2;ratioP2
22565;SDS011;11449;51.330;19.378;2022-07-01T00:02:34;63.60;;;15.98;;
22565;SDS011;11449;51.330;19.378;2022-07-01T00:07:36;64.40;;;16.37;;
22565;SDS011;11449;51.330;19.378;2022-07-01T00:12:37;67.58;;;16.90;;
22565;SDS011;11449;51.330;19.378;2022-07-01T00:17:39;75.52;;;17.10;;
22565;SDS011;11449;51.330;19.378;2022-07-01T00:22:40;65.25;;;15.23;;
22565;SDS011;11449;51.330;19.378;2022-07-01T00:27:42;54.63;;;13.58;;
22565;SDS011;11449;51.330;19.378;2022-07-01T00:32:43;66.85;;;15.58;;
22565;SDS011;11449;51.330;19.378;2022-07-01T00:37:47;66.25;;;16.42;;
22565;SDS011;11449;51.330;19.378;2022-07-01T00:42:48;66.07;;;16.17;;
22565;SDS011;11449;51.330;19.378;2022-07-01T00:47:49;49.23;;;14.47;;
22565;SDS011;11449;51.330;19.378;2022-07-01T00:52:51;77.58;;;17.70;;
22565;SDS011;11449;51.330;19.378;2022-07-01T00:57:52;50.95;;;14.53;;
22565;SDS011;11449;51.330;19.378;2022-07-01T01:02:54;62.33;;;16.00;;
22565;SDS011;11449;51.330;19.378;2022-07-01T01:07:55;77.40;;;17.65;;
22565;SDS011;11449;51.330;19.378;2022-07-01T01:12:57;66.28;;;16.65;;
22565;SDS011;11449;51.330;19.378;2022-07-01T01:17:58;71.85;;;17.15;;
22565;SDS011;11449;51.330;19.378;2022-07-01T01:22:59;68.15;;;16.95;;
22565;SDS011;11449;51.330;19.378;2022-07-01T01:28:02;70.60;;;17.85;;
22565;SDS011;11449;51.330;19.378;2022-07-01T01:33:04;64.87;;;16.67;;
22565;SDS011;11449;51.330;19.378;2022-07-01T01:38:07;91.65;;;19.05;;
22565;SDS011;11449;51.330;19.378;2022-07-01T01:43:08;77.67;;;17.92;;
22565;SDS011;11449;51.330;19.378;2022-07-01T01:48:10;91.87;;;19.75;;
22565;SDS011;11449;51.330;19.378;2022-07-01T01:53:11;88.27;;;19.42;;
22565;SDS011;11449;51.330;19.378;2022-07-01T01:58:12;104.32;;;20.35;;
22565;SDS011;11449;51.330;19.378;2022-07-01T02:03:13;102.82;;;20.68;;
22565;SDS011;11449;51.330;19.378;2022-07-01T02:08:14;93.10;;;20.20;;
22565;SDS011;11449;51.330;19.378;2022-07-01T02:13:15;108.83;;;21.77;;
22565;SDS011;11449;51.330;19.378;2022-07-01T02:18:16;111.17;;;22.13;;
22565;SDS011;11449;51.330;19.378;2022-07-01T02:23:18;91.12;;;20.02;;
22565;SDS011;11449;51.330;19.378;2022-07-01T02:28:19;67.65;;;18.48;;
22565;SDS011;11449;51.330;19.378;2022-07-01T02:33:20;66.97;;;17.52;;
22565;SDS011;11449;51.330;19.378;2022-07-01T02:38:22;66.17;;;17.60;;
22565;SDS011;11449;51.330;19.378;2022-07-01T02:43:24;80.10;;;19.48;;
22565;SDS011;11449;51.330;19.378;2022-07-01T02:48:25;74.12;;;18.57;;
22565;SDS011;11449;51.330;19.378;2022-07-01T02:53:26;67.85;;;18.40;;
22565;SDS011;11449;51.330;19.378;2022-07-01T02:58:27;69.55;;;17.82;;
22565;SDS011;11449;51.330;19.378;2022-07-01T03:03:29;60.88;;;16.25;;
22565;SDS011;11449;51.330;19.378;2022-07-01T03:08:30;79.03;;;18.92;;
22565;SDS011;11449;51.330;19.378;2022-07-01T03:13:31;65.97;;;17.57;;
22565;SDS011;11449;51.330;19.378;2022-07-01T03:18:32;77.78;;;19.25;;
22565;SDS011;11449;51.330;19.378;2022-07-01T03:23:33;66.47;;;18.73;;
22565;SDS011;11449;51.330;19.378;2022-07-01T03:28:34;75.10;;;18.82;;
22565;SDS011;11449;51.330;19.378;2022-07-01T03:33:36;73.65;;;20.70;;
22565;SDS011;11449;51.330;19.378;2022-07-01T03:38:37;82.22;;;21.62;;
22565;SDS011;11449;51.330;19.378;2022-07-01T03:43:38;92.40;;;20.05;;
22565;SDS011;11449;51.330;19.378;2022-07-01T03:48:39;121.47;;;25.72;;
22565;SDS011;11449;51.330;19.378;2022-07-01T03:53:41;115.08;;;24.23;;
22565;SDS011;11449;51.330;19.378;2022-07-01T03:59:01;76.12;;;24.30;;
22565;SDS011;11449;51.330;19.378;2022-07-01T04:04:02;90.00;;;30.88;;
22565;SDS011;11449;51.330;19.378;2022-07-01T04:09:03;84.77;;;19.77;;
22565;SDS011;11449;51.330;19.378;2022-07-01T04:14:05;81.25;;;20.00;;
22565;SDS011;11449;51.330;19.378;2022-07-01T04:19:06;78.83;;;20.20;;
22565;SDS011;11449;51.330;19.378;2022-07-01T04:24:09;87.72;;;21.02;;
22565;SDS011;11449;51.330;19.378;2022-07-01T04:29:11;65.50;;;18.92;;
22565;SDS011;11449;51.330;19.378;2022-07-01T04:34:12;69.82;;;18.62;;
22565;SDS011;11449;51.330;19.378;2022-07-01T04:39:13;82.30;;;20.90;;
22565;SDS011;11449;51.330;19.378;2022-07-01T04:44:15;87.85;;;20.35;;
22565;SDS011;11449;51.330;19.378;2022-07-01T04:49:18;61.48;;;18.90;;
22565;SDS011;11449;51.330;19.378;2022-07-01T04:54:19;64.20;;;18.07;;
22565;SDS011;11449;51.330;19.378;2022-07-01T04:59:21;101.35;;;21.60;;
22565;SDS011;11449;51.330;19.378;2022-07-01T05:04:22;68.33;;;18.98;;
22565;SDS011;11449;51.330;19.378;2022-07-01T05:09:24;87.05;;;20.40;;
22565;SDS011;11449;51.330;19.378;2022-07-01T05:14:25;81.63;;;20.95;;
22565;SDS011;11449;51.330;19.378;2022-07-01T05:19:26;59.38;;;19.37;;
22565;SDS011;11449;51.330;19.378;2022-07-01T05:24:46;55.12;;;18.98;;
22565;SDS011;11449;51.330;19.378;2022-07-01T05:29:47;73.97;;;20.25;;
22565;SDS011;11449;51.330;19.378;2022-07-01T05:34:49;55.88;;;18.02;;
22565;SDS011;11449;51.330;19.378;2022-07-01T05:39:50;63.35;;;19.40;;
22565;SDS011;11449;51.330;19.378;2022-07-01T05:44:52;69.37;;;19.90;;
22565;SDS011;11449;51.330;19.378;2022-07-01T05:49:53;60.28;;;18.73;;
22565;SDS011;11449;51.330;19.378;2022-07-01T05:54:54;72.67;;;19.77;;
22565;SDS011;11449;51.330;19.378;2022-07-01T05:59:56;69.00;;;19.75;;
22565;SDS011;11449;51.330;19.378;2022-07-01T06:04:57;60.30;;;19.57;;
22565;SDS011;11449;51.330;19.378;2022-07-01T06:10:00;56.45;;;18.87;;
22565;SDS011;11449;51.330;19.378;2022-07-01T06:15:02;70.55;;;19.65;;
22565;SDS011;11449;51.330;19.378;2022-07-01T06:20:04;74.15;;;21.12;;
22565;SDS011;11449;51.330;19.378;2022-07-01T06:25:06;57.93;;;17.35;;
22565;SDS011;11449;51.330;19.378;2022-07-01T06:30:09;106.80;;;22.02;;
22565;SDS011;11449;51.330;19.378;2022-07-01T06:35:10;71.25;;;20.15;;
22565;SDS011;11449;51.330;19.378;2022-07-01T06:40:12;61.90;;;20.32;;
22565;SDS011;11449;51.330;19.378;2022-07-01T06:45:13;70.28;;;21.15;;
22565;SDS011;11449;51.330;19.378;2022-07-01T06:50:14;78.92;;;21.52;;
22565;SDS011;11449;51.330;19.378;2022-07-01T06:55:15;75.05;;;20.52;;
22565;SDS011;11449;51.330;19.378;2022-07-01T07:00:17;65.03;;;20.27;;
22565;SDS011;11449;51.330;19.378;2022-07-01T07:05:18;91.63;;;21.57;;
22565;SDS011;11449;51.330;19.378;2022-07-01T07:10:19;69.35;;;19.90;;
22565;SDS011;11449;51.330;19.378;2022-07-01T07:15:20;70.08;;;20.02;;
22565;SDS011;11449;51.330;19.378;2022-07-01T07:20:21;69.85;;;19.92;;
22565;SDS011;11449;51.330;19.378;2022-07-01T07:25:24;43.85;;;16.73;;
22565;SDS011;11449;51.330;19.378;2022-07-01T07:30:25;60.80;;;18.85;;
22565;SDS011;11449;51.330;19.378;2022-07-01T07:35:27;79.25;;;20.05;;
22565;SDS011;11449;51.330;19.378;2022-07-01T07:40:28;52.40;;;17.48;;
22565;SDS011;11449;51.330;19.378;2022-07-01T07:45:29;52.93;;;16.67;;
22565;SDS011;11449;51.330;19.378;2022-07-01T07:50:32;40.80;;;16.12;;
22565;SDS011;11449;51.330;19.378;2022-07-01T07:55:33;66.33;;;19.48;;
22565;SDS011;11449;51.330;19.378;2022-07-01T08:00:35;60.90;;;17.45;;
22565;SDS011;11449;51.330;19.378;2022-07-01T08:05:36;49.45;;;16.45;;
22565;SDS011;11449;51.330;19.378;2022-07-01T08:10:37;79.07;;;18.73;;
22565;SDS011;11449;51.330;19.378;2022-07-01T08:15:39;77.62;;;17.32;;
22565;SDS011;11449;51.330;19.378;2022-07-01T08:20:42;89.85;;;18.05;;
22565;SDS011;11449;51.330;19.378;2022-07-01T08:25:43;63.68;;;18.35;;
22565;SDS011;11449;51.330;19.378;2022-07-01T08:30:44;102.55;;;20.43;;
22565;SDS011;11449;51.330;19.378;2022-07-01T08:35:46;63.05;;;16.52;;
22565;SDS011;11449;51.330;19.378;2022-07-01T08:40:48;100.90;;;19.90;;
22565;SDS011;11449;51.330;19.378;2022-07-01T08:45:50;67.80;;;17.90;;
22565;SDS011;11449;51.330;19.378;2022-07-01T08:50:52;87.95;;;18.62;;
22565;SDS011;11449;51.330;19.378;2022-07-01T08:55:54;59.10;;;16.82;;
22565;SDS011;11449;51.330;19.378;2022-07-01T09:06:20;77.53;;;20.55;;
22565;SDS011;11449;51.330;19.378;2022-07-01T09:11:23;58.40;;;16.85;;
22565;SDS011;11449;51.330;19.378;2022-07-01T09:16:26;75.55;;;17.75;;
22565;SDS011;11449;51.330;19.378;2022-07-01T09:21:32;63.70;;;17.05;;
22565;SDS011;11449;51.330;19.378;2022-07-01T09:26:31;59.70;;;15.50;;
22565;SDS011;11449;51.330;19.378;2022-07-01T09:31:33;54.27;;;15.18;;
22565;SDS011;11449;51.330;19.378;2022-07-01T09:36:38;60.08;;;14.58;;
22565;SDS011;11449;51.330;19.378;2022-07-01T09:41:40;55.52;;;13.13;;
22565;SDS011;11449;51.330;19.378;2022-07-01T09:46:51;60.75;;;15.18;;
22565;SDS011;11449;51.330;19.378;2022-07-01T09:51:54;61.80;;;14.43;;
22565;SDS011;11449;51.330;19.378;2022-07-01T09:56:55;59.60;;;14.75;;
22565;SDS011;11449;51.330;19.378;2022-07-01T10:01:57;50.15;;;13.35;;
22565;SDS011;11449;51.330;19.378;2022-07-01T10:07:13;46.95;;;13.35;;
22565;SDS011;11449;51.330;19.378;2022-07-01T10:12:46;58.33;;;14.55;;
22565;SDS011;11449;51.330;19.378;2022-07-01T10:17:49;41.73;;;11.63;;
22565;SDS011;11449;51.330;19.378;2022-07-01T10:23:00;55.28;;;12.90;;
22565;SDS011;11449;51.330;19.378;2022-07-01T10:28:13;49.88;;;12.13;;
22565;SDS011;11449;51.330;19.378;2022-07-01T10:38:32;57.30;;;12.75;;
22565;SDS011;11449;51.330;19.378;2022-07-01T10:43:34;60.35;;;13.93;;
22565;SDS011;11449;51.330;19.378;2022-07-01T10:48:37;72.95;;;14.00;;
22565;SDS011;11449;51.330;19.378;2022-07-01T10:53:45;46.40;;;11.70;;
22565;SDS011;11449;51.330;19.378;2022-07-01T10:58:58;185.40;;;23.10;;
22565;SDS011;11449;51.330;19.378;2022-07-01T11:03:56;51.13;;;11.28;;
22565;SDS011;11449;51.330;19.378;2022-07-01T11:08:58;42.60;;;10.85;;
22565;SDS011;11449;51.330;19.378;2022-07-01T11:13:59;58.60;;;12.70;;
22565;SDS011;11449;51.330;19.378;2022-07-01T11:19:01;63.45;;;11.80;;
22565;SDS011;11449;51.330;19.378;2022-07-01T11:24:03;60.98;;;12.93;;
22565;SDS011;11449;51.330;19.378;2022-07-01T11:29:11;82.22;;;14.18;;
22565;SDS011;11449;51.330;19.378;2022-07-01T11:34:15;52.08;;;10.65;;
22565;SDS011;11449;51.330;19.378;2022-07-01T11:39:18;51.95;;;10.18;;
22565;SDS011;11449;51.330;19.378;2022-07-01T11:44:29;69.40;;;11.65;;
22565;SDS011;11449;51.330;19.378;2022-07-01T11:49:33;66.70;;;12.82;;
22565;SDS011;11449;51.330;19.378;2022-07-01T11:54:38;64.77;;;11.95;;
22565;SDS011;11449;51.330;19.378;2022-07-01T11:59:40;92.22;;;14.23;;
22565;SDS011;11449;51.330;19.378;2022-07-01T12:04:43;70.47;;;12.20;;
22565;SDS011;11449;51.330;19.378;2022-07-01T12:09:46;69.45;;;12.55;;
22565;SDS011;11449;51.330;19.378;2022-07-01T12:14:53;44.45;;;9.05;;
22565;SDS011;11449;51.330;19.378;2022-07-01T12:19:56;54.50;;;9.20;;
22565;SDS011;11449;51.330;19.378;2022-07-01T12:30:13;62.50;;;10.43;;
22565;SDS011;11449;51.330;19.378;2022-07-01T12:35:22;52.05;;;9.43;;
22565;SDS011;11449;51.330;19.378;2022-07-01T12:40:37;51.60;;;9.58;;
22565;SDS011;11449;51.330;19.378;2022-07-01T12:45:39;46.92;;;8.80;;
22565;SDS011;11449;51.330;19.378;2022-07-01T12:50:40;79.60;;;10.95;;
22565;SDS011;11449;51.330;19.378;2022-07-01T12:55:46;47.85;;;9.50;;
22565;SDS011;11449;51.330;19.378;2022-07-01T13:00:54;79.65;;;10.93;;
22565;SDS011;11449;51.330;19.378;2022-07-01T13:05:53;54.08;;;10.40;;
22565;SDS011;11449;51.330;19.378;2022-07-01T13:10:56;67.50;;;11.20;;
22565;SDS011;11449;51.330;19.378;2022-07-01T13:15:57;56.85;;;11.55;;
22565;SDS011;11449;51.330;19.378;2022-07-01T13:20:59;73.72;;;11.45;;
22565;SDS011;11449;51.330;19.378;2022-07-01T13:26:00;63.73;;;10.90;;
22565;SDS011;11449;51.330;19.378;2022-07-01T13:31:01;56.33;;;11.97;;
22565;SDS011;11449;51.330;19.378;2022-07-01T13:36:03;61.37;;;11.65;;
22565;SDS011;11449;51.330;19.378;2022-07-01T13:41:04;64.10;;;11.63;;
22565;SDS011;11449;51.330;19.378;2022-07-01T13:46:05;70.90;;;12.90;;
22565;SDS011;11449;51.330;19.378;2022-07-01T13:51:07;85.20;;;14.20;;
22565;SDS011;11449;51.330;19.378;2022-07-01T13:56:08;67.67;;;12.00;;
22565;SDS011;11449;51.330;19.378;2022-07-01T14:01:09;97.42;;;15.00;;
22565;SDS011;11449;51.330;19.378;2022-07-01T14:06:11;74.32;;;17.87;;
22565;SDS011;11449;51.330;19.378;2022-07-01T14:11:13;55.70;;;11.57;;
22565;SDS011;11449;51.330;19.378;2022-07-01T14:16:14;68.78;;;12.98;;
22565;SDS011;11449;51.330;19.378;2022-07-01T14:21:16;62.45;;;11.55;;
22565;SDS011;11449;51.330;19.378;2022-07-01T14:26:19;74.65;;;12.80;;
22565;SDS011;11449;51.330;19.378;2022-07-01T14:31:20;59.03;;;11.83;;
22565;SDS011;11449;51.330;19.378;2022-07-01T14:36:21;54.55;;;11.50;;
22565;SDS011;11449;51.330;19.378;2022-07-01T14:41:23;53.50;;;10.58;;
22565;SDS011;11449;51.330;19.378;2022-07-01T14:46:24;90.67;;;13.70;;
22565;SDS011;11449;51.330;19.378;2022-07-01T14:51:25;60.23;;;11.90;;
22565;SDS011;11449;51.330;19.378;2022-07-01T14:56:27;58.02;;;13.88;;
22565;SDS011;11449;51.330;19.378;2022-07-01T15:01:28;74.70;;;13.70;;
22565;SDS011;11449;51.330;19.378;2022-07-01T15:06:29;56.25;;;11.50;;
22565;SDS011;11449;51.330;19.378;2022-07-01T15:11:30;75.55;;;12.68;;
22565;SDS011;11449;51.330;19.378;2022-07-01T15:16:34;69.22;;;13.30;;
22565;SDS011;11449;51.330;19.378;2022-07-01T15:21:35;72.67;;;13.65;;
22565;SDS011;11449;51.330;19.378;2022-07-01T15:26:36;61.50;;;12.20;;
22565;SDS011;11449;51.330;19.378;2022-07-01T15:31:37;64.60;;;14.20;;
22565;SDS011;11449;51.330;19.378;2022-07-01T15:36:39;60.38;;;14.10;;
22565;SDS011;11449;51.330;19.378;2022-07-01T15:41:40;57.23;;;13.45;;
22565;SDS011;11449;51.330;19.378;2022-07-01T15:46:43;63.85;;;15.13;;
22565;SDS011;11449;51.330;19.378;2022-07-01T15:51:44;55.70;;;13.18;;
22565;SDS011;11449;51.330;19.378;2022-07-01T15:56:45;90.05;;;16.45;;
22565;SDS011;11449;51.330;19.378;2022-07-01T16:01:46;74.87;;;15.98;;
22565;SDS011;11449;51.330;19.378;2022-07-01T16:06:48;60.05;;;13.98;;
22565;SDS011;11449;51.330;19.378;2022-07-01T16:11:49;72.27;;;13.80;;
22565;SDS011;11449;51.330;19.378;2022-07-01T16:16:55;56.98;;;12.70;;
22565;SDS011;11449;51.330;19.378;2022-07-01T16:21:59;60.30;;;12.35;;
22565;SDS011;11449;51.330;19.378;2022-07-01T16:27:03;74.47;;;16.17;;
22565;SDS011;11449;51.330;19.378;2022-07-01T16:32:07;106.37;;;16.30;;
22565;SDS011;11449;51.330;19.378;2022-07-01T16:37:09;65.32;;;14.85;;
22565;SDS011;11449;51.330;19.378;2022-07-01T16:42:15;85.40;;;15.75;;
22565;SDS011;11449;51.330;19.378;2022-07-01T16:52:43;58.52;;;15.10;;
22565;SDS011;11449;51.330;19.378;2022-07-01T16:57:48;71.57;;;16.80;;
22565;SDS011;11449;51.330;19.378;2022-07-01T17:02:51;67.62;;;17.55;;
22565;SDS011;11449;51.330;19.378;2022-07-01T17:07:54;63.05;;;17.60;;
22565;SDS011;11449;51.330;19.378;2022-07-01T17:12:57;85.45;;;19.82;;
22565;SDS011;11449;51.330;19.378;2022-07-01T17:17:58;92.40;;;21.82;;
22565;SDS011;11449;51.330;19.378;2022-07-01T17:23:05;69.07;;;18.15;;
22565;SDS011;11449;51.330;19.378;2022-07-01T17:33:18;56.63;;;16.60;;
22565;SDS011;11449;51.330;19.378;2022-07-01T17:38:25;74.92;;;17.65;;
22565;SDS011;11449;51.330;19.378;2022-07-01T17:43:34;67.55;;;16.50;;
22565;SDS011;11449;51.330;19.378;2022-07-01T17:48:39;71.53;;;16.65;;
22565;SDS011;11449;51.330;19.378;2022-07-01T17:53:41;68.40;;;16.57;;
22565;SDS011;11449;51.330;19.378;2022-07-01T17:58:44;141.62;;;22.67;;
22565;SDS011;11449;51.330;19.378;2022-07-01T18:03:46;71.65;;;20.55;;
22565;SDS011;11449;51.330;19.378;2022-07-01T18:08:47;97.33;;;22.17;;
22565;SDS011;11449;51.330;19.378;2022-07-01T18:19:37;91.05;;;22.42;;
22565;SDS011;11449;51.330;19.378;2022-07-01T18:24:46;76.57;;;18.62;;
22565;SDS011;11449;51.330;19.378;2022-07-01T18:29:54;108.40;;;22.52;;
22565;SDS011;11449;51.330;19.378;2022-07-01T18:34:57;92.75;;;20.40;;
22565;SDS011;11449;51.330;19.378;2022-07-01T18:40:00;69.62;;;16.15;;
22565;SDS011;11449;51.330;19.378;2022-07-01T18:45:02;89.22;;;17.02;;
22565;SDS011;11449;51.330;19.378;2022-07-01T18:50:05;64.95;;;13.68;;
22565;SDS011;11449;51.330;19.378;2022-07-01T18:55:09;64.25;;;12.45;;
22565;SDS011;11449;51.330;19.378;2022-07-01T19:00:11;64.10;;;13.55;;
22565;SDS011;11449;51.330;19.378;2022-07-01T19:05:14;70.37;;;13.15;;
22565;SDS011;11449;51.330;19.378;2022-07-01T19:10:16;67.87;;;12.85;;
22565;SDS011;11449;51.330;19.378;2022-07-01T19:15:18;65.80;;;10.28;;
22565;SDS011;11449;51.330;19.378;2022-07-01T19:20:19;60.50;;;10.28;;
22565;SDS011;11449;51.330;19.378;2022-07-01T19:25:20;60.55;;;11.05;;
22565;SDS011;11449;51.330;19.378;2022-07-01T19:30:21;85.15;;;13.13;;
22565;SDS011;11449;51.330;19.378;2022-07-01T19:35:23;48.98;;;11.75;;
22565;SDS011;11449;51.330;19.378;2022-07-01T19:40:24;82.35;;;15.90;;
22565;SDS011;11449;51.330;19.378;2022-07-01T19:45:27;71.72;;;14.43;;
22565;SDS011;11449;51.330;19.378;2022-07-01T19:50:28;83.62;;;15.48;;
22565;SDS011;11449;51.330;19.378;2022-07-01T19:55:29;95.65;;;17.27;;
22565;SDS011;11449;51.330;19.378;2022-07-01T20:00:30;85.70;;;16.23;;
22565;SDS011;11449;51.330;19.378;2022-07-01T20:05:32;110.15;;;18.87;;
22565;SDS011;11449;51.330;19.378;2022-07-01T20:10:33;70.45;;;16.48;;
22565;SDS011;11449;51.330;19.378;2022-07-01T20:15:35;69.42;;;16.90;;
22565;SDS011;11449;51.330;19.378;2022-07-01T20:20:36;77.27;;;17.55;;
22565;SDS011;11449;51.330;19.378;2022-07-01T20:25:37;54.03;;;14.70;;
22565;SDS011;11449;51.330;19.378;2022-07-01T20:30:39;85.28;;;17.07;;
22565;SDS011;11449;51.330;19.378;2022-07-01T20:35:40;90.22;;;16.82;;
22565;SDS011;11449;51.330;19.378;2022-07-01T20:40:43;93.65;;;17.35;;
22565;SDS011;11449;51.330;19.378;2022-07-01T20:45:44;60.33;;;15.43;;
22565;SDS011;11449;51.330;19.378;2022-07-01T20:50:45;97.90;;;18.80;;
22565;SDS011;11449;51.330;19.378;2022-07-01T20:55:47;64.37;;;16.10;;
22565;SDS011;11449;51.330;19.378;2022-07-01T21:00:48;129.38;;;21.00;;
22565;SDS011;11449;51.330;19.378;2022-07-01T21:05:50;83.82;;;17.42;;
22565;SDS011;11449;51.330;19.378;2022-07-01T21:10:52;86.82;;;17.80;;
22565;SDS011;11449;51.330;19.378;2022-07-01T21:15:53;78.00;;;17.12;;
22565;SDS011;11449;51.330;19.378;2022-07-01T21:20:54;123.28;;;21.60;;
22565;SDS011;11449;51.330;19.378;2022-07-01T21:25:56;83.00;;;19.82;;
22565;SDS011;11449;51.330;19.378;2022-07-01T21:30:57;96.72;;;21.15;;
22565;SDS011;11449;51.330;19.378;2022-07-01T21:36:03;67.47;;;19.02;;
22565;SDS011;11449;51.330;19.378;2022-07-01T21:41:05;44.95;;;16.90;;
22565;SDS011;11449;51.330;19.378;2022-07-01T21:46:11;78.72;;;19.45;;
22565;SDS011;11449;51.330;19.378;2022-07-01T21:51:11;83.85;;;19.35;;
22565;SDS011;11449;51.330;19.378;2022-07-01T21:56:14;86.00;;;18.07;;
22565;SDS011;11449;51.330;19.378;2022-07-01T22:01:17;82.67;;;17.62;;
22565;SDS011;11449;51.330;19.378;2022-07-01T22:06:20;55.85;;;14.73;;
22565;SDS011;11449;51.330;19.378;2022-07-01T22:11:23;69.20;;;15.60;;
22565;SDS011;11449;51.330;19.378;2022-07-01T22:16:30;47.00;;;12.88;;
22565;SDS011;11449;51.330;19.378;2022-07-01T22:21:33;72.72;;;14.83;;
22565;SDS011;11449;51.330;19.378;2022-07-01T22:26:38;90.42;;;16.15;;
22565;SDS011;11449;51.330;19.378;2022-07-01T22:31:39;75.75;;;14.78;;
22565;SDS011;11449;51.330;19.378;2022-07-01T22:36:43;52.38;;;10.93;;
22565;SDS011;11449;51.330;19.378;2022-07-01T22:41:46;50.55;;;10.03;;
22565;SDS011;11449;51.330;19.378;2022-07-01T22:52:06;47.88;;;8.68;;
22565;SDS011;11449;51.330;19.378;2022-07-01T22:57:07;43.63;;;8.80;;
22565;SDS011;11449;51.330;19.378;2022-07-01T23:02:14;39.80;;;8.78;;
22565;SDS011;11449;51.330;19.378;2022-07-01T23:07:25;79.67;;;13.30;;
22565;SDS011;11449;51.330;19.378;2022-07-01T23:12:34;77.87;;;12.40;;
22565;SDS011;11449;51.330;19.378;2022-07-01T23:17:36;67.37;;;11.20;;
22565;SDS011;11449;51.330;19.378;2022-07-01T23:22:40;46.13;;;9.20;;
22565;SDS011;11449;51.330;19.378;2022-07-01T23:27:42;36.60;;;8.03;;
22565;SDS011;11449;51.330;19.378;2022-07-01T23:32:44;48.48;;;8.65;;
22565;SDS011;11449;51.330;19.378;2022-07-01T23:37:47;55.20;;;9.45;;
22565;SDS011;11449;51.330;19.378;2022-07-01T23:42:49;85.97;;;12.18;;
22565;SDS011;11449;51.330;19.378;2022-07-01T23:47:53;65.70;;;10.18;;
22565;SDS011;11449;51.330;19.378;2022-07-01T23:52:54;59.18;;;9.20;;
22565;SDS011;11449;51.330;19.378;2022-07-01T23:57:55;47.98;;;7.70;;
